sensor_id;sensor_type;location;lat;lon;timestamp;temperature;humidity
7447;DHT22;3765;47.962;7.952;2022-10-03T00:04:39;13.80;85.20
7447;DHT22;3765;47.962;7.952;2022-10-03T00:07:26;13.80;85.20
7447;DHT22;3765;47.962;7.952;2022-10-03T00:10:04;13.80;85.30
7447;DHT22;3765;47.962;7.952;2022-10-03T00:13:08;13.80;85.20
7447;DHT22;3765;47.962;7.952;2022-10-03T00:15:43;13.80;85.20
7447;DHT22;3765;47.962;7.952;2022-10-03T00:18:24;13.80;85.20
7447;DHT22;3765;47.962;7.952;2022-10-03T00:21:08;13.80;85.20
7447;DHT22;3765;47.962;7.952;2022-10-03T00:23:47;13.80;85.20
7447;DHT22;3765;47.962;7.952;2022-10-03T00:26:22;13.70;85.10
7447;DHT22;3765;47.962;7.952;2022-10-03T00:29:07;13.60;85.20
7447;DHT22;3765;47.962;7.952;2022-10-03T00:31:48;13.50;85.10
7447;DHT22;3765;47.962;7.952;2022-10-03T00:34:25;13.40;85.20
7447;DHT22;3765;47.962;7.952;2022-10-03T00:37:07;13.40;85.30
7447;DHT22;3765;47.962;7.952;2022-10-03T00:40:09;13.40;85.40
7447;DHT22;3765;47.962;7.952;2022-10-03T00:46:03;13.40;85.40
7447;DHT22;3765;47.962;7.952;2022-10-03T00:51:55;13.50;85.70
7447;DHT22;3765;47.962;7.952;2022-10-03T00:54:42;13.50;85.60
7447;DHT22;3765;47.962;7.952;2022-10-03T00:57:24;13.50;85.70
7447;DHT22;3765;47.962;7.952;2022-10-03T01:00:13;13.50;85.60
7447;DHT22;3765;47.962;7.952;2022-10-03T01:02:53;13.50;85.70
7447;DHT22;3765;47.962;7.952;2022-10-03T01:05:35;13.50;85.70
7447;DHT22;3765;47.962;7.952;2022-10-03T01:11:22;13.40;85.70
7447;DHT22;3765;47.962;7.952;2022-10-03T01:14:04;13.40;85.80
7447;DHT22;3765;47.962;7.952;2022-10-03T01:16:39;13.40;85.80
7447;DHT22;3765;47.962;7.952;2022-10-03T01:19:27;13.40;85.90
7447;DHT22;3765;47.962;7.952;2022-10-03T01:22:15;13.40;85.80
7447;DHT22;3765;47.962;7.952;2022-10-03T01:24:53;13.40;85.80
7447;DHT22;3765;47.962;7.952;2022-10-03T01:27:31;13.40;85.80
7447;DHT22;3765;47.962;7.952;2022-10-03T01:30:33;13.40;85.80
7447;DHT22;3765;47.962;7.952;2022-10-03T01:33:06;13.40;85.80
7447;DHT22;3765;47.962;7.952;2022-10-03T01:35:43;13.40;85.80
7447;DHT22;3765;47.962;7.952;2022-10-03T01:38:19;13.50;85.80
7447;DHT22;3765;47.962;7.952;2022-10-03T01:40:54;13.50;85.80
7447;DHT22;3765;47.962;7.952;2022-10-03T01:43:33;13.40;85.90
7447;DHT22;3765;47.962;7.952;2022-10-03T01:46:11;13.40;85.90
7447;DHT22;3765;47.962;7.952;2022-10-03T01:48:51;13.40;85.90
7447;DHT22;3765;47.962;7.952;2022-10-03T01:51:27;13.30;86.00
7447;DHT22;3765;47.962;7.952;2022-10-03T01:54:14;13.30;86.00
7447;DHT22;3765;47.962;7.952;2022-10-03T01:56:51;13.30;86.10
7447;DHT22;3765;47.962;7.952;2022-10-03T01:59:28;13.30;86.10
7447;DHT22;3765;47.962;7.952;2022-10-03T02:02:03;13.40;86.10
7447;DHT22;3765;47.962;7.952;2022-10-03T02:04:40;13.40;86.10
7447;DHT22;3765;47.962;7.952;2022-10-03T02:07:19;13.30;86.10
7447;DHT22;3765;47.962;7.952;2022-10-03T02:10:01;13.30;86.10
7447;DHT22;3765;47.962;7.952;2022-10-03T02:12:31;13.40;86.10
7447;DHT22;3765;47.962;7.952;2022-10-03T02:15:12;13.30;86.00
7447;DHT22;3765;47.962;7.952;2022-10-03T02:17:52;13.30;86.00
7447;DHT22;3765;47.962;7.952;2022-10-03T02:20:27;13.30;86.10
7447;DHT22;3765;47.962;7.952;2022-10-03T02:22:58;13.30;86.10
7447;DHT22;3765;47.962;7.952;2022-10-03T02:25:40;13.30;86.10
7447;DHT22;3765;47.962;7.952;2022-10-03T02:28:37;13.30;86.20
7447;DHT22;3765;47.962;7.952;2022-10-03T02:31:36;13.30;86.10
7447;DHT22;3765;47.962;7.952;2022-10-03T02:44:07;13.30;86.20
7447;DHT22;3765;47.962;7.952;2022-10-03T02:53:22;13.30;86.20
7447;DHT22;3765;47.962;7.952;2022-10-03T02:59:23;13.30;86.20
7447;DHT22;3765;47.962;7.952;2022-10-03T03:02:15;13.30;86.20
7447;DHT22;3765;47.962;7.952;2022-10-03T03:05:18;13.40;86.20
7447;DHT22;3765;47.962;7.952;2022-10-03T03:11:14;13.30;86.20
7447;DHT22;3765;47.962;7.952;2022-10-03T03:17:08;13.30;86.30
7447;DHT22;3765;47.962;7.952;2022-10-03T03:19:50;13.30;86.40
7447;DHT22;3765;47.962;7.952;2022-10-03T03:22:33;13.40;86.40
7447;DHT22;3765;47.962;7.952;2022-10-03T03:28:12;13.30;86.30
7447;DHT22;3765;47.962;7.952;2022-10-03T03:30:51;13.40;86.40
7447;DHT22;3765;47.962;7.952;2022-10-03T03:33:30;13.40;86.40
7447;DHT22;3765;47.962;7.952;2022-10-03T03:36:09;13.30;86.40
7447;DHT22;3765;47.962;7.952;2022-10-03T03:38:42;13.30;86.40
7447;DHT22;3765;47.962;7.952;2022-10-03T03:41:28;13.30;86.50
7447;DHT22;3765;47.962;7.952;2022-10-03T03:44:11;13.30;86.40
7447;DHT22;3765;47.962;7.952;2022-10-03T03:47:02;13.30;86.50
7447;DHT22;3765;47.962;7.952;2022-10-03T03:49:50;13.20;86.40
7447;DHT22;3765;47.962;7.952;2022-10-03T03:52:44;13.30;86.40
7447;DHT22;3765;47.962;7.952;2022-10-03T03:55:32;13.20;86.50
7447;DHT22;3765;47.962;7.952;2022-10-03T03:58:12;13.20;86.50
7447;DHT22;3765;47.962;7.952;2022-10-03T04:01:22;13.10;86.40
7447;DHT22;3765;47.962;7.952;2022-10-03T04:04:08;13.10;86.50
7447;DHT22;3765;47.962;7.952;2022-10-03T04:06:49;13.10;86.50
7447;DHT22;3765;47.962;7.952;2022-10-03T04:09:41;13.10;86.50
7447;DHT22;3765;47.962;7.952;2022-10-03T04:12:23;13.00;86.50
7447;DHT22;3765;47.962;7.952;2022-10-03T04:15:16;13.10;86.60
7447;DHT22;3765;47.962;7.952;2022-10-03T04:18:01;13.00;86.60
7447;DHT22;3765;47.962;7.952;2022-10-03T04:21:16;13.10;86.60
7447;DHT22;3765;47.962;7.952;2022-10-03T04:23:59;13.00;86.50
7447;DHT22;3765;47.962;7.952;2022-10-03T04:26:40;13.00;86.70
7447;DHT22;3765;47.962;7.952;2022-10-03T04:29:42;13.10;86.70
7447;DHT22;3765;47.962;7.952;2022-10-03T04:32:28;13.00;86.80
7447;DHT22;3765;47.962;7.952;2022-10-03T04:35:27;13.10;86.80
7447;DHT22;3765;47.962;7.952;2022-10-03T04:38:08;13.10;86.80
7447;DHT22;3765;47.962;7.952;2022-10-03T04:40:46;13.10;86.90
7447;DHT22;3765;47.962;7.952;2022-10-03T04:43:28;13.10;86.80
7447;DHT22;3765;47.962;7.952;2022-10-03T04:46:21;13.10;86.90
7447;DHT22;3765;47.962;7.952;2022-10-03T04:48:56;13.10;86.90
7447;DHT22;3765;47.962;7.952;2022-10-03T04:51:40;13.10;86.90
7447;DHT22;3765;47.962;7.952;2022-10-03T04:54:17;13.10;87.10
7447;DHT22;3765;47.962;7.952;2022-10-03T04:56:51;13.10;87.10
7447;DHT22;3765;47.962;7.952;2022-10-03T04:59:37;13.10;87.10
7447;DHT22;3765;47.962;7.952;2022-10-03T05:02:16;13.20;87.10
7447;DHT22;3765;47.962;7.952;2022-10-03T05:04:59;13.20;86.90
7447;DHT22;3765;47.962;7.952;2022-10-03T05:07:37;13.20;87.10
7447;DHT22;3765;47.962;7.952;2022-10-03T05:10:25;13.20;87.10
7447;DHT22;3765;47.962;7.952;2022-10-03T05:13:00;13.20;87.10
7447;DHT22;3765;47.962;7.952;2022-10-03T05:15:33;13.20;87.10
7447;DHT22;3765;47.962;7.952;2022-10-03T05:18:15;13.10;87.00
7447;DHT22;3765;47.962;7.952;2022-10-03T05:20:55;13.10;87.00
7447;DHT22;3765;47.962;7.952;2022-10-03T05:23:38;13.10;87.10
7447;DHT22;3765;47.962;7.952;2022-10-03T05:26:15;13.10;87.00
7447;DHT22;3765;47.962;7.952;2022-10-03T05:29:15;13.10;87.00
7447;DHT22;3765;47.962;7.952;2022-10-03T05:31:48;13.10;86.90
7447;DHT22;3765;47.962;7.952;2022-10-03T05:34:31;12.90;86.90
7447;DHT22;3765;47.962;7.952;2022-10-03T05:37:40;12.90;86.80
7447;DHT22;3765;47.962;7.952;2022-10-03T05:40:17;13.00;86.90
7447;DHT22;3765;47.962;7.952;2022-10-03T05:43:12;13.10;86.90
7447;DHT22;3765;47.962;7.952;2022-10-03T05:45:53;13.10;86.90
7447;DHT22;3765;47.962;7.952;2022-10-03T05:48:32;13.10;86.90
7447;DHT22;3765;47.962;7.952;2022-10-03T05:54:30;13.00;86.90
7447;DHT22;3765;47.962;7.952;2022-10-03T05:57:29;13.00;86.90
7447;DHT22;3765;47.962;7.952;2022-10-03T06:00:20;13.00;86.90
7447;DHT22;3765;47.962;7.952;2022-10-03T06:03:29;13.00;86.70
7447;DHT22;3765;47.962;7.952;2022-10-03T06:06:16;13.00;86.70
7447;DHT22;3765;47.962;7.952;2022-10-03T06:09:17;13.00;86.60
7447;DHT22;3765;47.962;7.952;2022-10-03T06:12:01;13.00;86.50
7447;DHT22;3765;47.962;7.952;2022-10-03T06:14:41;12.90;86.40
7447;DHT22;3765;47.962;7.952;2022-10-03T06:17:27;12.90;86.60
7447;DHT22;3765;47.962;7.952;2022-10-03T06:20:18;13.10;86.60
7447;DHT22;3765;47.962;7.952;2022-10-03T06:23:18;13.10;86.40
7447;DHT22;3765;47.962;7.952;2022-10-03T06:26:23;13.20;86.30
7447;DHT22;3765;47.962;7.952;2022-10-03T06:29:40;13.20;86.20
7447;DHT22;3765;47.962;7.952;2022-10-03T06:35:45;13.20;86.20
7447;DHT22;3765;47.962;7.952;2022-10-03T06:42:21;13.20;86.10
7447;DHT22;3765;47.962;7.952;2022-10-03T06:48:28;13.10;85.90
7447;DHT22;3765;47.962;7.952;2022-10-03T06:51:21;13.20;85.90
7447;DHT22;3765;47.962;7.952;2022-10-03T06:54:20;13.20;85.80
7447;DHT22;3765;47.962;7.952;2022-10-03T06:57:07;13.30;85.50
7447;DHT22;3765;47.962;7.952;2022-10-03T07:00:10;13.10;85.50
7447;DHT22;3765;47.962;7.952;2022-10-03T07:03:13;13.20;85.60
7447;DHT22;3765;47.962;7.952;2022-10-03T07:22:20;13.60;85.10
7447;DHT22;3765;47.962;7.952;2022-10-03T07:28:10;13.70;84.80
7447;DHT22;3765;47.962;7.952;2022-10-03T07:30:58;13.70;84.60
7447;DHT22;3765;47.962;7.952;2022-10-03T07:36:56;14.10;84.40
7447;DHT22;3765;47.962;7.952;2022-10-03T07:40:07;14.20;84.10
7447;DHT22;3765;47.962;7.952;2022-10-03T07:43:03;14.10;84.00
7447;DHT22;3765;47.962;7.952;2022-10-03T07:45:37;14.20;84.00
7447;DHT22;3765;47.962;7.952;2022-10-03T07:48:37;14.20;83.80
7447;DHT22;3765;47.962;7.952;2022-10-03T07:51:21;14.00;83.60
7447;DHT22;3765;47.962;7.952;2022-10-03T07:54:14;13.90;83.40
7447;DHT22;3765;47.962;7.952;2022-10-03T07:57:07;13.80;83.40
7447;DHT22;3765;47.962;7.952;2022-10-03T08:00:02;13.90;83.40
7447;DHT22;3765;47.962;7.952;2022-10-03T08:05:53;14.00;83.50
7447;DHT22;3765;47.962;7.952;2022-10-03T08:08:52;14.10;83.50
7447;DHT22;3765;47.962;7.952;2022-10-03T08:11:39;14.10;83.70
7447;DHT22;3765;47.962;7.952;2022-10-03T08:14:18;14.30;83.60
7447;DHT22;3765;47.962;7.952;2022-10-03T08:17:05;14.40;83.50
7447;DHT22;3765;47.962;7.952;2022-10-03T08:19:56;14.40;83.40
7447;DHT22;3765;47.962;7.952;2022-10-03T08:22:40;14.40;83.30
7447;DHT22;3765;47.962;7.952;2022-10-03T08:25:25;14.70;83.20
7447;DHT22;3765;47.962;7.952;2022-10-03T08:28:17;14.80;83.00
7447;DHT22;3765;47.962;7.952;2022-10-03T08:37:11;14.80;82.50
7447;DHT22;3765;47.962;7.952;2022-10-03T08:43:05;15.00;82.10
7447;DHT22;3765;47.962;7.952;2022-10-03T08:46:02;15.00;82.00
7447;DHT22;3765;47.962;7.952;2022-10-03T08:48:57;15.10;81.80
7447;DHT22;3765;47.962;7.952;2022-10-03T08:51:55;15.10;81.40
7447;DHT22;3765;47.962;7.952;2022-10-03T09:00:49;15.50;81.10
7447;DHT22;3765;47.962;7.952;2022-10-03T09:03:56;15.80;80.70
7447;DHT22;3765;47.962;7.952;2022-10-03T09:06:49;15.70;80.30
7447;DHT22;3765;47.962;7.952;2022-10-03T09:10:04;15.90;80.00
7447;DHT22;3765;47.962;7.952;2022-10-03T09:16:13;15.80;78.90
7447;DHT22;3765;47.962;7.952;2022-10-03T09:19:12;15.60;79.00
7447;DHT22;3765;47.962;7.952;2022-10-03T09:25:10;15.40;79.70
7447;DHT22;3765;47.962;7.952;2022-10-03T09:30:56;15.10;80.50
7447;DHT22;3765;47.962;7.952;2022-10-03T09:33:58;15.20;80.80
7447;DHT22;3765;47.962;7.952;2022-10-03T09:37:02;15.30;80.60
7447;DHT22;3765;47.962;7.952;2022-10-03T09:49:26;15.20;80.20
7447;DHT22;3765;47.962;7.952;2022-10-03T09:52:11;15.30;80.10
7447;DHT22;3765;47.962;7.952;2022-10-03T09:58:06;15.20;80.20
7447;DHT22;3765;47.962;7.952;2022-10-03T10:04:20;15.10;79.60
7447;DHT22;3765;47.962;7.952;2022-10-03T10:10:53;14.90;80.20
7447;DHT22;3765;47.962;7.952;2022-10-03T10:13:49;15.10;80.10
7447;DHT22;3765;47.962;7.952;2022-10-03T10:17:10;15.10;80.00
7447;DHT22;3765;47.962;7.952;2022-10-03T10:19:58;15.20;79.80
7447;DHT22;3765;47.962;7.952;2022-10-03T10:23:00;15.20;79.80
7447;DHT22;3765;47.962;7.952;2022-10-03T10:25:57;15.20;79.70
7447;DHT22;3765;47.962;7.952;2022-10-03T10:29:10;15.50;79.50
7447;DHT22;3765;47.962;7.952;2022-10-03T10:35:20;15.30;78.50
7447;DHT22;3765;47.962;7.952;2022-10-03T10:38:20;15.30;79.00
7447;DHT22;3765;47.962;7.952;2022-10-03T10:41:17;15.30;78.90
7447;DHT22;3765;47.962;7.952;2022-10-03T10:57:15;16.30;77.80
7447;DHT22;3765;47.962;7.952;2022-10-03T11:09:44;16.80;76.90
7447;DHT22;3765;47.962;7.952;2022-10-03T11:18:53;17.40;75.20
7447;DHT22;3765;47.962;7.952;2022-10-03T11:28:03;17.90;74.40
7447;DHT22;3765;47.962;7.952;2022-10-03T11:34:22;18.40;73.60
7447;DHT22;3765;47.962;7.952;2022-10-03T11:37:05;18.40;73.00
7447;DHT22;3765;47.962;7.952;2022-10-03T11:39:41;18.50;72.60
7447;DHT22;3765;47.962;7.952;2022-10-03T11:42:22;18.50;72.80
7447;DHT22;3765;47.962;7.952;2022-10-03T11:44:58;18.60;72.60
7447;DHT22;3765;47.962;7.952;2022-10-03T11:47:52;18.70;72.10
7447;DHT22;3765;47.962;7.952;2022-10-03T11:50:42;18.40;71.60
7447;DHT22;3765;47.962;7.952;2022-10-03T11:53:26;18.30;71.20
7447;DHT22;3765;47.962;7.952;2022-10-03T11:56:17;18.20;71.20
7447;DHT22;3765;47.962;7.952;2022-10-03T11:59:07;18.60;71.20
7447;DHT22;3765;47.962;7.952;2022-10-03T12:01:55;18.80;70.60
7447;DHT22;3765;47.962;7.952;2022-10-03T12:04:30;18.80;70.50
7447;DHT22;3765;47.962;7.952;2022-10-03T12:07:10;18.80;70.40
7447;DHT22;3765;47.962;7.952;2022-10-03T12:10:07;19.00;69.90
7447;DHT22;3765;47.962;7.952;2022-10-03T12:12:41;19.00;68.90
7447;DHT22;3765;47.962;7.952;2022-10-03T12:15:22;19.20;69.00
7447;DHT22;3765;47.962;7.952;2022-10-03T12:18:01;19.40;69.00
7447;DHT22;3765;47.962;7.952;2022-10-03T12:20:39;19.50;68.40
7447;DHT22;3765;47.962;7.952;2022-10-03T12:23:22;19.70;68.20
7447;DHT22;3765;47.962;7.952;2022-10-03T12:25:55;19.80;68.00
7447;DHT22;3765;47.962;7.952;2022-10-03T12:28:28;19.80;67.70
7447;DHT22;3765;47.962;7.952;2022-10-03T12:31:05;20.20;67.10
7447;DHT22;3765;47.962;7.952;2022-10-03T12:33:47;20.30;66.60
7447;DHT22;3765;47.962;7.952;2022-10-03T12:36:24;20.40;66.40
7447;DHT22;3765;47.962;7.952;2022-10-03T12:39:03;20.30;65.40
7447;DHT22;3765;47.962;7.952;2022-10-03T12:41:49;19.80;65.60
7447;DHT22;3765;47.962;7.952;2022-10-03T12:44:29;19.80;65.90
7447;DHT22;3765;47.962;7.952;2022-10-03T12:47:16;19.70;65.10
7447;DHT22;3765;47.962;7.952;2022-10-03T12:50:16;19.40;66.20
7447;DHT22;3765;47.962;7.952;2022-10-03T12:53:10;19.80;66.20
7447;DHT22;3765;47.962;7.952;2022-10-03T12:55:50;19.90;65.60
7447;DHT22;3765;47.962;7.952;2022-10-03T12:58:28;20.00;64.90
7447;DHT22;3765;47.962;7.952;2022-10-03T13:01:05;19.90;64.80
7447;DHT22;3765;47.962;7.952;2022-10-03T13:03:41;19.70;65.00
7447;DHT22;3765;47.962;7.952;2022-10-03T13:06:40;19.60;64.50
7447;DHT22;3765;47.962;7.952;2022-10-03T13:09:44;19.60;65.50
7447;DHT22;3765;47.962;7.952;2022-10-03T13:12:28;19.60;65.10
7447;DHT22;3765;47.962;7.952;2022-10-03T13:18:17;20.40;64.60
7447;DHT22;3765;47.962;7.952;2022-10-03T13:20:53;20.60;63.90
7447;DHT22;3765;47.962;7.952;2022-10-03T13:23:26;20.80;63.60
7447;DHT22;3765;47.962;7.952;2022-10-03T13:26:05;20.80;63.90
7447;DHT22;3765;47.962;7.952;2022-10-03T13:29:06;20.60;62.80
7447;DHT22;3765;47.962;7.952;2022-10-03T13:31:50;20.30;63.20
7447;DHT22;3765;47.962;7.952;2022-10-03T13:34:24;20.50;63.50
7447;DHT22;3765;47.962;7.952;2022-10-03T13:36:58;20.60;63.30
7447;DHT22;3765;47.962;7.952;2022-10-03T13:39:40;20.80;62.60
7447;DHT22;3765;47.962;7.952;2022-10-03T13:42:16;20.50;62.50
7447;DHT22;3765;47.962;7.952;2022-10-03T13:44:50;20.40;61.60
7447;DHT22;3765;47.962;7.952;2022-10-03T13:47:40;19.80;62.80
7447;DHT22;3765;47.962;7.952;2022-10-03T13:50:15;20.00;62.70
7447;DHT22;3765;47.962;7.952;2022-10-03T13:52:49;20.00;62.60
7447;DHT22;3765;47.962;7.952;2022-10-03T13:55:27;20.30;62.70
7447;DHT22;3765;47.962;7.952;2022-10-03T14:01:14;20.60;62.60
7447;DHT22;3765;47.962;7.952;2022-10-03T14:03:58;20.40;62.00
7447;DHT22;3765;47.962;7.952;2022-10-03T14:06:35;20.60;62.10
7447;DHT22;3765;47.962;7.952;2022-10-03T14:09:33;20.70;61.70
7447;DHT22;3765;47.962;7.952;2022-10-03T14:12:16;20.80;62.10
7447;DHT22;3765;47.962;7.952;2022-10-03T14:15:18;21.00;61.50
7447;DHT22;3765;47.962;7.952;2022-10-03T14:17:54;21.30;61.10
7447;DHT22;3765;47.962;7.952;2022-10-03T14:20:30;21.60;60.70
7447;DHT22;3765;47.962;7.952;2022-10-03T14:23:15;21.70;60.50
7447;DHT22;3765;47.962;7.952;2022-10-03T14:25:52;21.60;60.40
7447;DHT22;3765;47.962;7.952;2022-10-03T14:28:25;21.80;60.40
7447;DHT22;3765;47.962;7.952;2022-10-03T14:31:02;21.40;60.20
7447;DHT22;3765;47.962;7.952;2022-10-03T14:33:40;21.60;60.40
7447;DHT22;3765;47.962;7.952;2022-10-03T14:36:28;21.70;60.20
7447;DHT22;3765;47.962;7.952;2022-10-03T14:39:23;21.50;59.90
7447;DHT22;3765;47.962;7.952;2022-10-03T14:42:14;21.60;59.90
7447;DHT22;3765;47.962;7.952;2022-10-03T14:44:46;22.00;59.50
7447;DHT22;3765;47.962;7.952;2022-10-03T14:47:17;22.30;58.90
7447;DHT22;3765;47.962;7.952;2022-10-03T14:49:49;22.30;58.70
7447;DHT22;3765;47.962;7.952;2022-10-03T14:52:29;22.40;58.40
7447;DHT22;3765;47.962;7.952;2022-10-03T14:55:07;22.10;58.30
7447;DHT22;3765;47.962;7.952;2022-10-03T14:57:43;21.60;58.80
7447;DHT22;3765;47.962;7.952;2022-10-03T15:00:36;21.40;59.10
7447;DHT22;3765;47.962;7.952;2022-10-03T15:03:28;21.30;59.00
7447;DHT22;3765;47.962;7.952;2022-10-03T15:19:26;21.50;58.90
7447;DHT22;3765;47.962;7.952;2022-10-03T15:22:03;20.00;60.20
7447;DHT22;3765;47.962;7.952;2022-10-03T15:24:32;19.80;60.70
7447;DHT22;3765;47.962;7.952;2022-10-03T15:27:05;19.50;61.40
7447;DHT22;3765;47.962;7.952;2022-10-03T15:29:37;19.40;61.50
7447;DHT22;3765;47.962;7.952;2022-10-03T15:32:09;19.20;62.00
7447;DHT22;3765;47.962;7.952;2022-10-03T15:34:48;19.20;62.20
7447;DHT22;3765;47.962;7.952;2022-10-03T15:37:23;18.80;62.80
7447;DHT22;3765;47.962;7.952;2022-10-03T15:39:59;18.70;62.90
7447;DHT22;3765;47.962;7.952;2022-10-03T15:42:30;18.50;63.40
7447;DHT22;3765;47.962;7.952;2022-10-03T15:45:04;18.30;63.80
7447;DHT22;3765;47.962;7.952;2022-10-03T15:47:35;18.10;64.20
7447;DHT22;3765;47.962;7.952;2022-10-03T15:50:17;18.10;64.70
7447;DHT22;3765;47.962;7.952;2022-10-03T15:52:50;17.90;65.00
7447;DHT22;3765;47.962;7.952;2022-10-03T15:55:23;17.80;65.10
7447;DHT22;3765;47.962;7.952;2022-10-03T15:57:58;17.80;65.40
7447;DHT22;3765;47.962;7.952;2022-10-03T16:00:28;17.70;65.70
7447;DHT22;3765;47.962;7.952;2022-10-03T16:03:07;17.70;65.90
7447;DHT22;3765;47.962;7.952;2022-10-03T16:05:50;17.50;66.00
7447;DHT22;3765;47.962;7.952;2022-10-03T16:08:25;17.40;66.50
7447;DHT22;3765;47.962;7.952;2022-10-03T16:11:04;17.30;66.80
7447;DHT22;3765;47.962;7.952;2022-10-03T16:13:38;17.30;67.00
7447;DHT22;3765;47.962;7.952;2022-10-03T16:16:15;17.10;67.30
7447;DHT22;3765;47.962;7.952;2022-10-03T16:18:56;17.00;67.60
7447;DHT22;3765;47.962;7.952;2022-10-03T16:21:43;17.00;67.80
7447;DHT22;3765;47.962;7.952;2022-10-03T16:24:21;16.80;68.00
7447;DHT22;3765;47.962;7.952;2022-10-03T16:27:05;16.80;68.30
7447;DHT22;3765;47.962;7.952;2022-10-03T16:29:36;16.70;68.50
7447;DHT22;3765;47.962;7.952;2022-10-03T16:32:15;16.60;68.80
7447;DHT22;3765;47.962;7.952;2022-10-03T16:34:46;16.50;69.00
7447;DHT22;3765;47.962;7.952;2022-10-03T16:37:22;16.50;69.10
7447;DHT22;3765;47.962;7.952;2022-10-03T16:39:56;16.40;69.20
7447;DHT22;3765;47.962;7.952;2022-10-03T16:42:37;16.40;69.60
7447;DHT22;3765;47.962;7.952;2022-10-03T16:45:19;16.30;69.70
7447;DHT22;3765;47.962;7.952;2022-10-03T16:47:50;16.30;69.90
7447;DHT22;3765;47.962;7.952;2022-10-03T16:50:43;16.30;70.00
7447;DHT22;3765;47.962;7.952;2022-10-03T16:53:16;16.30;70.20
7447;DHT22;3765;47.962;7.952;2022-10-03T16:55:47;16.30;70.30
7447;DHT22;3765;47.962;7.952;2022-10-03T16:58:21;16.20;70.40
7447;DHT22;3765;47.962;7.952;2022-10-03T17:00:59;16.10;70.40
7447;DHT22;3765;47.962;7.952;2022-10-03T17:03:54;15.90;70.60
7447;DHT22;3765;47.962;7.952;2022-10-03T17:06:29;15.90;70.90
7447;DHT22;3765;47.962;7.952;2022-10-03T17:09:07;15.80;71.10
7447;DHT22;3765;47.962;7.952;2022-10-03T17:11:50;15.80;71.30
7447;DHT22;3765;47.962;7.952;2022-10-03T17:14:21;15.80;71.60
7447;DHT22;3765;47.962;7.952;2022-10-03T17:16:54;15.60;71.90
7447;DHT22;3765;47.962;7.952;2022-10-03T17:19:34;15.40;72.20
7447;DHT22;3765;47.962;7.952;2022-10-03T17:22:13;15.30;72.80
7447;DHT22;3765;47.962;7.952;2022-10-03T17:24:47;15.20;73.10
7447;DHT22;3765;47.962;7.952;2022-10-03T17:27:21;15.10;73.30
7447;DHT22;3765;47.962;7.952;2022-10-03T17:29:56;15.00;73.70
7447;DHT22;3765;47.962;7.952;2022-10-03T17:32:29;14.80;73.90
7447;DHT22;3765;47.962;7.952;2022-10-03T17:35:02;14.80;74.20
7447;DHT22;3765;47.962;7.952;2022-10-03T17:38:06;14.50;74.40
7447;DHT22;3765;47.962;7.952;2022-10-03T17:41:21;14.50;74.90
7447;DHT22;3765;47.962;7.952;2022-10-03T17:44:10;14.50;75.00
7447;DHT22;3765;47.962;7.952;2022-10-03T17:46:50;14.50;75.20
7447;DHT22;3765;47.962;7.952;2022-10-03T17:49:51;14.40;75.30
7447;DHT22;3765;47.962;7.952;2022-10-03T17:52:24;14.40;75.50
7447;DHT22;3765;47.962;7.952;2022-10-03T17:54:55;14.30;75.70
7447;DHT22;3765;47.962;7.952;2022-10-03T17:57:27;14.30;75.80
7447;DHT22;3765;47.962;7.952;2022-10-03T17:59:58;14.20;76.00
7447;DHT22;3765;47.962;7.952;2022-10-03T18:02:34;14.00;76.10
7447;DHT22;3765;47.962;7.952;2022-10-03T18:05:11;13.90;76.30
7447;DHT22;3765;47.962;7.952;2022-10-03T18:07:40;13.90;76.50
7447;DHT22;3765;47.962;7.952;2022-10-03T18:10:20;13.80;76.60
7447;DHT22;3765;47.962;7.952;2022-10-03T18:12:53;13.60;76.80
7447;DHT22;3765;47.962;7.952;2022-10-03T18:15:44;13.50;77.10
7447;DHT22;3765;47.962;7.952;2022-10-03T18:18:51;13.40;77.30
7447;DHT22;3765;47.962;7.952;2022-10-03T18:21:33;13.30;77.50
7447;DHT22;3765;47.962;7.952;2022-10-03T18:24:14;13.30;77.70
7447;DHT22;3765;47.962;7.952;2022-10-03T18:26:56;13.20;77.80
7447;DHT22;3765;47.962;7.952;2022-10-03T18:29:29;13.10;78.10
7447;DHT22;3765;47.962;7.952;2022-10-03T18:32:11;13.00;78.20
7447;DHT22;3765;47.962;7.952;2022-10-03T18:34:45;12.80;78.30
7447;DHT22;3765;47.962;7.952;2022-10-03T18:40:23;12.80;78.60
7447;DHT22;3765;47.962;7.952;2022-10-03T18:42:54;12.60;78.70
7447;DHT22;3765;47.962;7.952;2022-10-03T18:45:28;12.60;78.80
7447;DHT22;3765;47.962;7.952;2022-10-03T18:48:03;12.60;78.90
7447;DHT22;3765;47.962;7.952;2022-10-03T18:50:46;12.60;78.90
7447;DHT22;3765;47.962;7.952;2022-10-03T18:53:20;12.60;78.90
7447;DHT22;3765;47.962;7.952;2022-10-03T18:55:57;12.50;78.90
7447;DHT22;3765;47.962;7.952;2022-10-03T18:58:31;12.50;78.90
7447;DHT22;3765;47.962;7.952;2022-10-03T19:01:04;12.50;78.90
7447;DHT22;3765;47.962;7.952;2022-10-03T19:03:37;12.40;78.70
7447;DHT22;3765;47.962;7.952;2022-10-03T19:06:13;12.40;78.80
7447;DHT22;3765;47.962;7.952;2022-10-03T19:08:49;12.40;78.90
7447;DHT22;3765;47.962;7.952;2022-10-03T19:11:20;12.30;78.90
7447;DHT22;3765;47.962;7.952;2022-10-03T19:13:57;12.30;79.00
7447;DHT22;3765;47.962;7.952;2022-10-03T19:16:57;12.30;78.90
7447;DHT22;3765;47.962;7.952;2022-10-03T19:19:31;12.30;79.00
7447;DHT22;3765;47.962;7.952;2022-10-03T19:22:05;12.20;78.90
7447;DHT22;3765;47.962;7.952;2022-10-03T19:24:34;12.20;79.00
7447;DHT22;3765;47.962;7.952;2022-10-03T19:27:38;12.20;78.90
7447;DHT22;3765;47.962;7.952;2022-10-03T19:30:07;12.20;78.90
7447;DHT22;3765;47.962;7.952;2022-10-03T19:32:48;12.20;79.00
7447;DHT22;3765;47.962;7.952;2022-10-03T19:35:18;12.10;78.90
7447;DHT22;3765;47.962;7.952;2022-10-03T19:37:49;12.00;79.10
7447;DHT22;3765;47.962;7.952;2022-10-03T19:40:40;11.90;79.20
7447;DHT22;3765;47.962;7.952;2022-10-03T19:43:32;11.90;79.20
7447;DHT22;3765;47.962;7.952;2022-10-03T19:46:16;11.90;79.50
7447;DHT22;3765;47.962;7.952;2022-10-03T19:49:05;11.90;79.50
7447;DHT22;3765;47.962;7.952;2022-10-03T19:51:35;11.80;79.50
7447;DHT22;3765;47.962;7.952;2022-10-03T19:54:11;11.80;79.50
7447;DHT22;3765;47.962;7.952;2022-10-03T19:56:40;11.80;79.60
7447;DHT22;3765;47.962;7.952;2022-10-03T19:59:14;11.70;79.60
7447;DHT22;3765;47.962;7.952;2022-10-03T20:01:44;11.60;79.60
7447;DHT22;3765;47.962;7.952;2022-10-03T20:04:16;11.60;79.70
7447;DHT22;3765;47.962;7.952;2022-10-03T20:06:48;11.50;79.80
7447;DHT22;3765;47.962;7.952;2022-10-03T20:09:20;11.50;79.80
7447;DHT22;3765;47.962;7.952;2022-10-03T20:11:51;11.50;79.70
7447;DHT22;3765;47.962;7.952;2022-10-03T20:14:24;11.50;79.70
7447;DHT22;3765;47.962;7.952;2022-10-03T20:16:55;11.50;79.60
7447;DHT22;3765;47.962;7.952;2022-10-03T20:19:27;11.50;79.60
7447;DHT22;3765;47.962;7.952;2022-10-03T20:21:57;11.50;79.60
7447;DHT22;3765;47.962;7.952;2022-10-03T20:24:32;11.40;79.60
7447;DHT22;3765;47.962;7.952;2022-10-03T20:27:11;11.30;79.60
7447;DHT22;3765;47.962;7.952;2022-10-03T20:29:47;11.30;79.70
7447;DHT22;3765;47.962;7.952;2022-10-03T20:32:18;11.20;79.80
7447;DHT22;3765;47.962;7.952;2022-10-03T20:34:55;11.10;80.00
7447;DHT22;3765;47.962;7.952;2022-10-03T20:37:37;11.00;79.90
7447;DHT22;3765;47.962;7.952;2022-10-03T20:40:24;11.00;80.30
7447;DHT22;3765;47.962;7.952;2022-10-03T20:43:06;11.00;80.40
7447;DHT22;3765;47.962;7.952;2022-10-03T20:45:38;11.00;80.40
7447;DHT22;3765;47.962;7.952;2022-10-03T20:48:10;11.00;80.40
7447;DHT22;3765;47.962;7.952;2022-10-03T20:50:44;11.00;80.40
7447;DHT22;3765;47.962;7.952;2022-10-03T20:53:16;10.90;80.50
7447;DHT22;3765;47.962;7.952;2022-10-03T20:55:48;10.80;80.40